Time;durP1;ratioP1;P1;durP2;ratioP2;P2;SDS_P1;SDS_P2;PMS_P1;PMS_P2;Temp;Humidity;BMP_temperature;BMP_pressure;BME280_temperature;BME280_humidity;BME280_pressure;Samples;Min_cycle;Max_cycle;Signal;HPM_P1;HPM_P2
2021/01/19 00:00:28;;;;;;;27.97;16.37;;;3.50;99.90;;;;;;5051095;28;20655;-72
2021/01/19 00:02:53;;;;;;;25.60;17.33;;;3.50;99.90;;;;;;5051189;28;20167;-72
2021/01/19 00:28:53;;;;;;;26.63;16.90;;;3.50;99.90;;;;;;5052468;28;20484;-72
2021/01/19 00:31:19;;;;;;;21.23;15.73;;;3.50;99.90;;;;;;5055360;28;20524;-72
2021/01/19 00:33:44;;;;;;;21.40;15.57;;;3.50;99.90;;;;;;5055086;28;20175;-72
2021/01/19 00:36:10;;;;;;;20.37;14.70;;;3.50;99.90;;;;;;5054476;28;20183;-72
2021/01/19 00:38:35;;;;;;;28.33;15.50;;;3.40;99.90;;;;;;5054428;28;20199;-72
2021/01/19 00:41:01;;;;;;;33.33;17.00;;;3.40;99.90;;;;;;5054461;28;20198;-72
2021/01/19 00:43:26;;;;;;;23.30;15.93;;;3.40;99.90;;;;;;5054616;28;20174;-72
2021/01/19 00:45:52;;;;;;;26.57;16.87;;;3.40;99.90;;;;;;5054215;28;20644;-72
2021/01/19 00:48:17;;;;;;;20.10;16.13;;;3.50;99.90;;;;;;5054516;28;20195;-72
2021/01/19 00:54:06;;;;;;;23.73;15.77;;;3.40;99.90;;;;;;5044089;28;20225;-72
2021/01/19 00:56:39;;;;;;;24.27;15.50;;;3.40;99.90;;;;;;5034589;28;20899;-72
2021/01/19 00:59:05;;;;;;;23.30;14.90;;;3.40;99.90;;;;;;5034776;28;20871;-72
2021/01/19 01:01:31;;;;;;;30.00;16.33;;;3.40;99.90;;;;;;5034175;28;20469;-72
2021/01/19 01:03:57;;;;;;;20.37;15.30;;;3.40;99.90;;;;;;5034259;28;20418;-72
2021/01/19 01:06:22;;;;;;;24.50;15.87;;;3.40;99.90;;;;;;5034021;28;20442;-72
2021/01/19 01:08:48;;;;;;;23.70;16.53;;;3.40;99.90;;;;;;5034254;28;20194;-72
2021/01/19 01:11:13;;;;;;;27.73;17.70;;;3.40;99.90;;;;;;5034350;28;20187;-72
2021/01/19 01:13:39;;;;;;;24.47;15.97;;;3.40;99.90;;;;;;5034536;28;20164;-72
2021/01/19 01:16:10;;;;;;;24.40;17.70;;;3.40;99.90;;;;;;5034110;28;20179;-72
2021/01/19 01:18:35;;;;;;;26.40;16.33;;;3.40;99.90;;;;;;5033814;28;20171;-72
2021/01/19 01:21:01;;;;;;;26.83;17.80;;;3.40;99.90;;;;;;5034022;28;20778;-72
2021/01/19 01:23:26;;;;;;;27.10;16.97;;;3.40;99.90;;;;;;5034049;28;20247;-72
2021/01/19 01:25:52;;;;;;;25.07;17.37;;;3.30;99.90;;;;;;5033842;28;20762;-72
2021/01/19 01:28:17;;;;;;;22.83;15.30;;;3.40;99.90;;;;;;5033450;28;20163;-72
2021/01/19 01:30:43;;;;;;;26.47;14.93;;;3.40;99.90;;;;;;5033784;28;20198;-72
2021/01/19 01:33:08;;;;;;;26.27;16.57;;;3.40;99.90;;;;;;5033982;28;20597;-73
2021/01/19 01:35:33;;;;;;;27.63;16.83;;;3.30;99.90;;;;;;5039048;28;20171;-72
2021/01/19 01:37:59;;;;;;;25.13;14.47;;;3.30;99.90;;;;;;5053590;28;20179;-72
2021/01/19 01:40:27;;;;;;;27.23;16.33;;;3.30;99.90;;;;;;5053591;28;20205;-72
2021/01/19 01:42:57;;;;;;;21.27;14.37;;;3.30;99.90;;;;;;5053532;28;20178;-73
2021/01/19 01:45:24;;;;;;;22.23;14.60;;;3.30;99.90;;;;;;5053500;28;20896;-72
2021/01/19 01:47:51;;;;;;;28.40;16.57;;;3.30;99.90;;;;;;5053680;28;20868;-72
2021/01/19 01:50:17;;;;;;;23.00;16.60;;;3.40;99.90;;;;;;5053167;28;20426;-72
2021/01/19 01:52:43;;;;;;;21.17;14.53;;;3.30;99.90;;;;;;5053067;28;20482;-72
2021/01/19 01:55:09;;;;;;;19.33;14.53;;;3.40;99.90;;;;;;5035490;28;20942;-72
2021/01/19 01:57:38;;;;;;;28.37;17.40;;;3.40;99.90;;;;;;5035323;28;20760;-72
2021/01/19 02:00:05;;;;;;;21.00;15.53;;;3.40;99.90;;;;;;5053088;28;20484;-72
2021/01/19 02:02:31;;;;;;;22.33;14.60;;;3.40;99.90;;;;;;5053272;28;20470;-72
2021/01/19 02:04:56;;;;;;;20.07;13.80;;;3.40;99.90;;;;;;5053286;28;20421;-73
2021/01/19 02:07:37;;;;;;;18.70;14.40;;;3.40;99.90;;;;;;5053146;28;20750;-73
2021/01/19 02:10:12;;;;;;;32.23;15.50;;;3.40;99.90;;;;;;5053705;28;20194;-73
2021/01/19 02:13:00;;;;;;;26.40;14.70;;;3.40;99.90;;;;;;5053783;28;20401;-73
2021/01/19 02:15:43;;;;;;;19.40;13.87;;;3.40;99.90;;;;;;5050184;28;20869;-73
2021/01/19 02:18:36;;;;;;;21.23;14.97;;;3.40;99.90;;;;;;5033601;28;20413;-73
2021/01/19 02:21:38;;;;;;;22.17;14.33;;;3.40;99.90;;;;;;5034646;28;21028;-73
2021/01/19 02:24:12;;;;;;;20.60;13.10;;;3.40;99.90;;;;;;5034758;28;20409;-73
2021/01/19 02:26:43;;;;;;;23.83;14.43;;;3.40;99.90;;;;;;5033046;28;20961;-72
2021/01/19 02:29:37;;;;;;;24.20;14.80;;;3.50;99.90;;;;;;5032994;28;20394;-73
2021/01/19 02:32:19;;;;;;;27.47;14.77;;;3.50;99.90;;;;;;5032632;28;20434;-73
2021/01/19 02:34:53;;;;;;;22.50;15.03;;;3.50;99.90;;;;;;5032783;28;20402;-73
2021/01/19 02:37:23;;;;;;;27.17;14.77;;;3.50;99.90;;;;;;5032720;28;20402;-73
2021/01/19 02:39:55;;;;;;;20.00;14.30;;;3.40;99.90;;;;;;5051579;28;20409;-73
2021/01/19 02:42:26;;;;;;;19.23;13.30;;;3.50;99.90;;;;;;5052305;28;20412;-73
2021/01/19 02:44:54;;;;;;;22.57;14.60;;;3.50;99.90;;;;;;5034671;28;20936;-73
2021/01/19 02:47:19;;;;;;;22.93;14.20;;;3.40;99.90;;;;;;5052358;28;20955;-73
2021/01/19 02:49:45;;;;;;;17.63;13.80;;;3.50;99.90;;;;;;5052106;28;20405;-72
2021/01/19 02:52:15;;;;;;;28.87;14.70;;;3.50;99.90;;;;;;5034311;28;20168;-72
2021/01/19 02:54:43;;;;;;;20.27;12.53;;;3.40;99.90;;;;;;5052207;28;20195;-72
2021/01/19 02:57:32;;;;;;;26.50;15.13;;;3.50;99.90;;;;;;5052003;28;20414;-72
2021/01/19 03:00:20;;;;;;;19.27;13.60;;;3.50;99.90;;;;;;5052524;28;20488;-72
2021/01/19 03:02:48;;;;;;;24.10;14.40;;;3.50;99.90;;;;;;5052311;28;20935;-72
2021/01/19 03:05:15;;;;;;;22.47;15.10;;;3.50;99.90;;;;;;5052269;28;20413;-73
2021/01/19 03:11:04;;;;;;;18.67;13.70;;;3.50;99.90;;;;;;5051595;28;20904;-73
2021/01/19 03:26:58;;;;;;;25.40;13.20;;;3.60;99.90;;;;;;5049478;28;20499;-73
2021/01/19 03:29:23;;;;;;;16.70;12.60;;;3.50;99.90;;;;;;5051700;28;20405;-73
2021/01/19 03:31:49;;;;;;;22.73;14.07;;;3.50;99.90;;;;;;5051390;28;20689;-73
2021/01/19 03:34:14;;;;;;;19.00;13.30;;;3.50;99.90;;;;;;5051233;28;20170;-71
2021/01/19 03:36:40;;;;;;;18.00;12.90;;;3.50;99.90;;;;;;5051199;28;20481;-71
2021/01/19 03:39:06;;;;;;;17.73;12.13;;;3.50;99.90;;;;;;5051270;28;20200;-73
2021/01/19 03:41:31;;;;;;;18.00;11.80;;;3.50;99.90;;;;;;5051096;28;20244;-72
2021/01/19 03:43:57;;;;;;;18.93;13.10;;;3.50;99.90;;;;;;5051840;28;20209;-72
2021/01/19 03:46:23;;;;;;;18.10;11.87;;;3.50;99.90;;;;;;5051312;28;20740;-73
2021/01/19 03:48:48;;;;;;;17.73;12.83;;;3.40;99.90;;;;;;5051662;28;20420;-73
2021/01/19 03:51:14;;;;;;;16.90;11.40;;;3.50;99.90;;;;;;5050831;28;20290;-72
2021/01/19 03:53:40;;;;;;;24.93;13.33;;;3.50;99.90;;;;;;5050954;28;20167;-72
2021/01/19 03:56:05;;;;;;;17.83;11.80;;;3.50;99.90;;;;;;5051369;28;20420;-72
2021/01/19 03:58:31;;;;;;;16.87;10.90;;;3.50;99.90;;;;;;5051183;28;20650;-72
2021/01/19 04:00:56;;;;;;;18.50;13.13;;;3.50;99.90;;;;;;5050860;28;20670;-72
2021/01/19 04:03:22;;;;;;;19.60;12.83;;;3.50;99.90;;;;;;5051112;28;20252;-72
2021/01/19 04:05:47;;;;;;;15.70;11.83;;;3.40;99.90;;;;;;5051043;28;20237;-73
2021/01/19 04:08:13;;;;;;;15.30;12.77;;;3.40;99.90;;;;;;5051213;28;20166;-71
2021/01/19 04:10:38;;;;;;;22.07;13.20;;;3.40;99.90;;;;;;5050933;28;20189;-72
2021/01/19 04:13:03;;;;;;;23.10;14.43;;;3.50;99.90;;;;;;5050728;28;20248;-72
2021/01/19 04:15:29;;;;;;;17.57;13.50;;;3.50;99.90;;;;;;5050892;28;20171;-73
2021/01/19 04:17:55;;;;;;;17.70;12.67;;;3.50;99.90;;;;;;5050787;28;20171;-72
2021/01/19 04:20:20;;;;;;;18.53;12.47;;;3.50;99.90;;;;;;5050798;28;20761;-73
2021/01/19 04:22:45;;;;;;;15.67;11.30;;;3.50;99.90;;;;;;5033163;28;20535;-73
2021/01/19 04:25:11;;;;;;;16.87;11.97;;;3.50;99.90;;;;;;5050983;28;20169;-73
2021/01/19 04:27:36;;;;;;;15.13;12.27;;;3.50;99.90;;;;;;5050707;28;20198;-73
2021/01/19 04:30:07;;;;;;;14.57;10.83;;;3.50;99.90;;;;;;5050936;28;21454;-73
2021/01/19 04:32:35;;;;;;;18.23;11.20;;;3.50;99.90;;;;;;5050973;28;20270;-72
2021/01/19 04:35:01;;;;;;;14.03;11.27;;;3.60;99.90;;;;;;5050808;28;20406;-72
2021/01/19 04:37:26;;;;;;;17.50;11.33;;;3.50;99.90;;;;;;5051373;28;20463;-72
2021/01/19 04:39:52;;;;;;;17.10;11.70;;;3.50;99.90;;;;;;5051095;28;20175;-72
2021/01/19 04:42:19;;;;;;;13.10;10.80;;;3.50;99.90;;;;;;5050814;28;20198;-72
2021/01/19 04:44:44;;;;;;;19.87;11.47;;;3.50;99.90;;;;;;5051094;28;20167;-73
2021/01/19 04:47:12;;;;;;;17.50;10.77;;;3.40;99.90;;;;;;5050377;28;20952;-72
2021/01/19 04:49:38;;;;;;;14.20;10.97;;;3.40;99.90;;;;;;5050839;28;20166;-72
2021/01/19 04:52:05;;;;;;;18.90;12.27;;;3.40;99.90;;;;;;5049419;28;20917;-72
2021/01/19 04:54:41;;;;;;;13.50;11.30;;;3.40;99.90;;;;;;5040768;28;20410;-72
2021/01/19 04:57:19;;;;;;;13.77;11.07;;;3.40;99.90;;;;;;5050650;28;20401;-72
2021/01/19 04:59:51;;;;;;;12.47;10.77;;;3.40;99.90;;;;;;5050208;28;20413;-72
2021/01/19 05:02:36;;;;;;;12.07;9.70;;;3.40;99.90;;;;;;5051296;28;20405;-72
2021/01/19 05:05:39;;;;;;;10.97;9.10;;;3.40;99.90;;;;;;5054558;28;20466;-72
2021/01/19 05:08:24;;;;;;;14.07;9.87;;;3.40;99.90;;;;;;5029670;28;20461;-72
2021/01/19 05:11:19;;;;;;;12.40;9.33;;;3.40;99.90;;;;;;5054134;28;20420;-72
2021/01/19 05:13:54;;;;;;;17.17;10.40;;;3.40;99.90;;;;;;5054163;28;20389;-73
2021/01/19 05:16:22;;;;;;;15.13;11.33;;;3.40;99.90;;;;;;5054296;28;20393;-72
2021/01/19 05:18:48;;;;;;;14.73;10.97;;;3.40;99.90;;;;;;5054641;28;20397;-72
2021/01/19 05:21:15;;;;;;;15.47;10.17;;;3.30;99.90;;;;;;5054253;28;20429;-72
2021/01/19 05:23:41;;;;;;;17.50;10.83;;;3.30;99.90;;;;;;5053883;28;20407;-72
2021/01/19 05:26:09;;;;;;;18.67;11.00;;;3.30;99.90;;;;;;5053712;28;20964;-72
2021/01/19 05:28:49;;;;;;;15.23;9.93;;;3.20;99.90;;;;;;5054083;28;20492;-72
2021/01/19 05:31:14;;;;;;;14.67;9.87;;;3.20;99.90;;;;;;5054278;28;20443;-72
2021/01/19 05:33:52;;;;;;;19.63;11.30;;;3.20;99.90;;;;;;5054002;28;20409;-72
2021/01/19 05:36:44;;;;;;;11.33;9.00;;;3.20;99.90;;;;;;5053734;28;20178;-72
2021/01/19 05:39:12;;;;;;;12.10;9.70;;;3.20;99.90;;;;;;5050370;28;20909;-72
2021/01/19 05:41:49;;;;;;;13.10;9.50;;;3.20;99.90;;;;;;5053963;28;20479;-72
2021/01/19 05:44:17;;;;;;;16.53;8.90;;;3.20;99.90;;;;;;5053814;28;20409;-72
2021/01/19 05:46:44;;;;;;;12.37;9.17;;;3.20;99.90;;;;;;5053573;28;20445;-72
2021/01/19 05:49:18;;;;;;;12.23;8.40;;;3.10;99.90;;;;;;5053659;28;20410;-72
2021/01/19 05:51:46;;;;;;;12.17;8.80;;;3.10;99.90;;;;;;5053600;28;20453;-72
2021/01/19 05:54:21;;;;;;;11.40;8.87;;;3.20;99.90;;;;;;5053458;28;20412;-72
2021/01/19 05:56:49;;;;;;;12.47;8.07;;;3.10;99.90;;;;;;5053452;28;20417;-72
2021/01/19 05:59:29;;;;;;;10.73;8.43;;;3.20;99.90;;;;;;5053270;28;20764;-72
2021/01/19 06:02:00;;;;;;;13.93;7.93;;;3.20;99.90;;;;;;5054024;28;20421;-74
2021/01/19 06:04:36;;;;;;;9.93;7.83;;;3.20;99.90;;;;;;5053520;28;20405;-72
2021/01/19 06:07:03;;;;;;;11.27;8.00;;;3.20;99.90;;;;;;5053268;28;20893;-72
2021/01/19 06:09:29;;;;;;;11.27;7.13;;;3.20;99.90;;;;;;5053224;28;20424;-72
2021/01/19 06:11:56;;;;;;;9.10;7.10;;;3.20;99.90;;;;;;5053569;28;20909;-72
2021/01/19 06:14:29;;;;;;;11.23;7.03;;;3.10;99.90;;;;;;5052262;28;20608;-72
2021/01/19 06:17:11;;;;;;;11.03;7.40;;;3.20;99.90;;;;;;5053224;28;20435;-72
2021/01/19 06:19:37;;;;;;;13.30;8.90;;;3.20;99.90;;;;;;5053561;28;20774;-72
2021/01/19 06:22:09;;;;;;;10.50;7.53;;;3.20;99.90;;;;;;5053410;28;20443;-72
2021/01/19 06:24:39;;;;;;;13.53;8.70;;;3.20;99.90;;;;;;5053517;28;20417;-72
2021/01/19 06:27:06;;;;;;;13.40;8.80;;;3.30;99.90;;;;;;5053521;28;20445;-72
2021/01/19 06:29:32;;;;;;;15.70;8.93;;;3.30;99.90;;;;;;5056360;28;20406;-72
2021/01/19 06:32:00;;;;;;;10.40;7.73;;;3.30;99.90;;;;;;5055954;28;20448;-73
2021/01/19 06:34:27;;;;;;;8.70;7.50;;;3.20;99.90;;;;;;5055052;28;20398;-73
2021/01/19 06:36:53;;;;;;;11.80;7.90;;;3.20;99.90;;;;;;5051990;28;20440;-73
2021/01/19 06:39:28;;;;;;;9.53;7.67;;;3.20;99.90;;;;;;5052825;28;20457;-73
2021/01/19 06:42:02;;;;;;;10.23;7.83;;;3.20;99.90;;;;;;5053111;28;20201;-73
2021/01/19 06:44:35;;;;;;;10.70;7.17;;;3.20;99.90;;;;;;5053236;28;20397;-72
2021/01/19 06:47:03;;;;;;;9.60;8.40;;;3.30;99.90;;;;;;5052259;28;20445;-72
2021/01/19 06:49:31;;;;;;;10.27;7.27;;;3.20;99.90;;;;;;5052534;28;20516;-73
2021/01/19 06:52:03;;;;;;;8.30;7.10;;;3.20;99.90;;;;;;5052480;28;20482;-73
2021/01/19 06:54:40;;;;;;;10.80;8.47;;;3.20;99.90;;;;;;5052238;28;20413;-73
2021/01/19 06:57:22;;;;;;;9.80;6.63;;;3.20;99.90;;;;;;5052117;28;20410;-73
2021/01/19 06:59:58;;;;;;;10.20;7.93;;;3.20;99.90;;;;;;5052298;28;20401;-73
2021/01/19 07:02:33;;;;;;;10.57;6.97;;;3.20;99.90;;;;;;5052700;28;20487;-74
2021/01/19 07:05:08;;;;;;;10.70;7.83;;;3.10;99.90;;;;;;5045462;28;20408;-75
2021/01/19 07:07:48;;;;;;;13.10;7.90;;;3.20;99.90;;;;;;5052329;28;20912;-75
2021/01/19 07:10:20;;;;;;;11.10;8.10;;;3.20;99.90;;;;;;5052143;28;20421;-74
2021/01/19 07:13:01;;;;;;;12.53;8.43;;;3.20;99.90;;;;;;5052457;28;20492;-71
2021/01/19 07:15:51;;;;;;;16.00;7.60;;;3.20;99.90;;;;;;5050107;28;20409;-72
2021/01/19 07:18:36;;;;;;;10.43;8.00;;;3.20;99.90;;;;;;5046968;28;20405;-73
2021/01/19 07:21:07;;;;;;;10.43;7.63;;;3.20;99.90;;;;;;5052032;28;20475;-72
2021/01/19 07:23:45;;;;;;;11.53;7.83;;;3.20;99.90;;;;;;5052065;28;20417;-72
2021/01/19 07:26:20;;;;;;;9.73;7.80;;;3.20;99.90;;;;;;5051792;28;20445;-72
2021/01/19 07:28:47;;;;;;;9.80;7.07;;;3.20;99.90;;;;;;5052013;28;20413;-72
2021/01/19 07:31:15;;;;;;;10.30;8.07;;;3.20;99.90;;;;;;5052162;28;20437;-73
2021/01/19 07:33:49;;;;;;;10.87;8.33;;;3.20;99.90;;;;;;5052254;28;20774;-74
2021/01/19 07:36:15;;;;;;;11.07;6.80;;;3.10;99.90;;;;;;5051523;28;20879;-74
2021/01/19 07:38:41;;;;;;;14.73;8.23;;;3.10;99.90;;;;;;5051706;28;20495;-72
2021/01/19 07:41:06;;;;;;;9.17;7.10;;;3.10;99.90;;;;;;5051479;28;20512;-72
2021/01/19 07:43:34;;;;;;;10.53;7.17;;;3.20;99.90;;;;;;5051344;28;20709;-73
2021/01/19 07:46:00;;;;;;;10.60;7.13;;;3.20;99.90;;;;;;5051250;28;20659;-72
2021/01/19 07:48:36;;;;;;;8.67;7.10;;;3.20;99.90;;;;;;5051167;28;20413;-72
2021/01/19 07:51:14;;;;;;;11.13;7.50;;;3.20;99.90;;;;;;5031680;28;20218;-72
2021/01/19 07:53:53;;;;;;;11.30;7.20;;;3.20;99.90;;;;;;5037234;28;20478;-74
2021/01/19 07:56:27;;;;;;;10.60;6.67;;;3.20;99.90;;;;;;5051177;28;20401;-72
2021/01/19 07:58:57;;;;;;;12.50;9.23;;;3.30;99.90;;;;;;5051831;28;20432;-74
2021/01/19 08:01:30;;;;;;;9.20;8.20;;;3.30;99.90;;;;;;5051870;28;20455;-72
2021/01/19 08:04:07;;;;;;;13.57;7.50;;;3.30;99.90;;;;;;5051831;28;20405;-73
2021/01/19 08:06:32;;;;;;;9.60;7.63;;;3.30;99.90;;;;;;5051471;28;20464;-71
2021/01/19 08:09:18;;;;;;;12.30;8.93;;;3.30;99.90;;;;;;5051762;28;20489;-71
2021/01/19 08:11:45;;;;;;;11.93;8.90;;;3.30;99.90;;;;;;5033985;28;20198;-72
2021/01/19 08:14:11;;;;;;;10.80;7.30;;;3.40;99.90;;;;;;5051941;28;20463;-71
2021/01/19 08:16:38;;;;;;;10.70;8.10;;;3.40;99.90;;;;;;5051420;28;20500;-72
2021/01/19 08:19:12;;;;;;;10.13;7.70;;;3.40;99.90;;;;;;5051885;28;20751;-72
2021/01/19 08:21:50;;;;;;;11.10;7.90;;;3.40;99.90;;;;;;5051521;28;20447;-72
2021/01/19 08:24:19;;;;;;;12.57;8.40;;;3.50;99.90;;;;;;5051354;28;20409;-72
2021/01/19 08:26:44;;;;;;;9.27;8.07;;;3.50;99.90;;;;;;5051186;28;20453;-71
2021/01/19 08:29:10;;;;;;;8.80;7.83;;;3.50;99.90;;;;;;5051330;28;20413;-71
2021/01/19 08:31:36;;;;;;;10.33;7.67;;;3.60;99.90;;;;;;5051354;28;20273;-71
2021/01/19 08:34:07;;;;;;;9.50;7.30;;;3.60;99.90;;;;;;5051279;28;20398;-72
2021/01/19 08:36:36;;;;;;;12.20;7.60;;;3.60;99.90;;;;;;5051153;28;20180;-71
2021/01/19 08:39:04;;;;;;;11.00;9.13;;;3.70;99.90;;;;;;5054496;28;20420;-72
2021/01/19 08:41:30;;;;;;;9.73;8.07;;;3.70;99.90;;;;;;5054843;28;20944;-72
2021/01/19 08:43:59;;;;;;;10.87;8.13;;;3.70;99.90;;;;;;5054975;28;20405;-73
2021/01/19 08:46:26;;;;;;;10.40;7.80;;;3.70;99.90;;;;;;5054973;28;20447;-73
2021/01/19 08:48:52;;;;;;;14.30;9.57;;;3.80;99.90;;;;;;5055292;28;20401;-72
2021/01/19 08:51:22;;;;;;;11.83;8.43;;;3.80;99.90;;;;;;5054813;28;20429;-73
2021/01/19 08:53:48;;;;;;;10.20;8.43;;;3.80;99.90;;;;;;5054764;28;20334;-73
2021/01/19 08:56:21;;;;;;;13.20;8.20;;;3.80;99.90;;;;;;5054252;28;20432;-73
2021/01/19 08:58:47;;;;;;;10.73;8.93;;;3.90;99.90;;;;;;5036687;28;20421;-73
2021/01/19 09:01:14;;;;;;;13.13;8.40;;;3.90;99.90;;;;;;5054715;28;20638;-73
2021/01/19 09:03:39;;;;;;;15.63;9.10;;;3.90;99.90;;;;;;5054739;28;20178;-73
2021/01/19 09:06:07;;;;;;;12.17;8.63;;;3.90;99.90;;;;;;5054265;28;20508;-73
2021/01/19 09:08:32;;;;;;;13.60;9.30;;;4.40;99.90;;;;;;5054339;28;20178;-73
2021/01/19 09:11:09;;;;;;;11.30;9.03;;;4.40;99.90;;;;;;5036717;28;20438;-73
2021/01/19 09:13:39;;;;;;;9.50;7.13;;;4.10;99.90;;;;;;5054599;28;20155;-73
2021/01/19 09:16:05;;;;;;;9.53;7.90;;;4.00;99.90;;;;;;5054254;28;20411;-73
2021/01/19 09:18:31;;;;;;;9.63;6.70;;;4.00;99.90;;;;;;5054379;28;20393;-73
2021/01/19 09:21:08;;;;;;;11.43;7.47;;;4.00;99.90;;;;;;5054271;28;20775;-73
2021/01/19 09:23:35;;;;;;;10.50;8.47;;;4.00;99.90;;;;;;5053939;28;20929;-73
2021/01/19 09:26:06;;;;;;;13.10;7.53;;;4.00;99.90;;;;;;5053819;28;20543;-73
2021/01/19 09:28:38;;;;;;;8.30;7.50;;;4.00;99.90;;;;;;5053861;28;20397;-73
2021/01/19 09:31:23;;;;;;;9.77;8.17;;;4.00;99.90;;;;;;5053562;28;20449;-73
2021/01/19 09:33:53;;;;;;;10.80;7.60;;;4.00;99.90;;;;;;5053689;28;20987;-73
2021/01/19 09:36:21;;;;;;;10.67;7.20;;;4.00;99.90;;;;;;5053910;28;20795;-73
2021/01/19 09:38:48;;;;;;;8.57;7.43;;;4.00;99.90;;;;;;5053909;28;20814;-73
2021/01/19 09:41:20;;;;;;;8.37;7.57;;;3.90;99.90;;;;;;5053512;28;20429;-73
2021/01/19 09:43:54;;;;;;;8.50;7.30;;;3.90;99.90;;;;;;5053484;28;20913;-73
2021/01/19 09:46:25;;;;;;;10.43;6.80;;;4.00;99.90;;;;;;5053570;28;20821;-73
2021/01/19 09:48:53;;;;;;;7.57;6.87;;;3.90;99.90;;;;;;5053208;28;20402;-74
2021/01/19 09:51:25;;;;;;;14.80;6.97;;;4.00;99.90;;;;;;5053264;28;20433;-74
2021/01/19 09:53:55;;;;;;;8.80;6.67;;;4.00;99.90;;;;;;5053324;28;20468;-73
2021/01/19 09:56:20;;;;;;;12.23;7.33;;;4.60;99.90;;;;;;5053404;28;20419;-72
2021/01/19 09:58:46;;;;;;;10.33;7.03;;;4.70;99.90;;;;;;5053160;28;20504;-73
2021/01/19 10:01:24;;;;;;;10.20;6.60;;;4.50;99.90;;;;;;5034443;28;20199;-74
2021/01/19 10:03:49;;;;;;;15.00;7.53;;;4.20;99.90;;;;;;5053234;28;20170;-74
2021/01/19 10:06:23;;;;;;;14.03;6.13;;;4.10;99.90;;;;;;5053531;28;20445;-74
2021/01/19 10:08:52;;;;;;;8.33;6.50;;;4.00;99.90;;;;;;5053570;28;20163;-74
2021/01/19 10:11:31;;;;;;;8.90;5.60;;;4.00;99.90;;;;;;5053544;28;20417;-74
2021/01/19 10:14:14;;;;;;;11.20;6.73;;;3.90;99.90;;;;;;5053745;28;20397;-74
2021/01/19 10:16:48;;;;;;;11.60;6.20;;;3.80;99.90;;;;;;5053706;28;20448;-74
2021/01/19 10:19:30;;;;;;;10.47;5.73;;;3.90;99.90;;;;;;5053622;28;20412;-74
2021/01/19 10:21:58;;;;;;;7.80;5.67;;;3.90;99.90;;;;;;5053579;28;20429;-74
2021/01/19 10:24:25;;;;;;;12.17;5.77;;;3.90;99.90;;;;;;5053497;28;20472;-74
2021/01/19 10:27:04;;;;;;;6.30;5.13;;;4.00;99.90;;;;;;5053592;28;20449;-74
2021/01/19 10:29:43;;;;;;;6.33;5.10;;;4.00;99.90;;;;;;5053415;28;20481;-74
2021/01/19 10:32:12;;;;;;;10.30;6.03;;;3.90;99.90;;;;;;5053274;28;20420;-74
2021/01/19 10:34:38;;;;;;;10.70;5.00;;;3.90;99.90;;;;;;5035803;28;20405;-74
2021/01/19 10:37:08;;;;;;;6.70;5.53;;;3.90;99.90;;;;;;5058723;28;20431;-74
2021/01/19 10:39:33;;;;;;;15.10;5.70;;;3.90;99.90;;;;;;5058892;28;20405;-74
2021/01/19 10:41:59;;;;;;;8.77;5.27;;;4.00;99.90;;;;;;5056889;28;20437;-74
2021/01/19 10:44:26;;;;;;;5.80;4.60;;;4.10;99.90;;;;;;5053130;28;20254;-74
2021/01/19 10:46:59;;;;;;;7.40;5.47;;;4.10;99.90;;;;;;5052774;28;20195;-74
2021/01/19 10:49:32;;;;;;;11.00;6.37;;;4.10;99.90;;;;;;5052703;28;20537;-73
2021/01/19 10:51:58;;;;;;;6.83;4.83;;;4.00;99.90;;;;;;5052451;28;20441;-73
2021/01/19 10:54:25;;;;;;;7.07;4.40;;;4.00;99.90;;;;;;5052528;28;20471;-72
2021/01/19 10:57:07;;;;;;;8.97;4.90;;;4.00;99.90;;;;;;5052660;28;20898;-72
2021/01/19 10:59:33;;;;;;;8.53;4.90;;;4.00;99.90;;;;;;5052103;28;20405;-73
2021/01/19 11:01:59;;;;;;;6.43;4.10;;;3.90;99.90;;;;;;5051946;28;20433;-72
2021/01/19 11:04:25;;;;;;;5.90;3.83;;;3.90;99.90;;;;;;5052005;28;20410;-72
2021/01/19 11:06:50;;;;;;;8.43;5.07;;;3.90;99.90;;;;;;5051909;28;20553;-72
2021/01/19 11:09:16;;;;;;;15.03;5.07;;;3.80;99.90;;;;;;5052757;28;20163;-72
2021/01/19 11:11:42;;;;;;;7.93;5.30;;;3.90;99.90;;;;;;5052025;28;20189;-72
2021/01/19 11:14:08;;;;;;;6.10;5.47;;;3.80;99.90;;;;;;5052657;28;20171;-72
2021/01/19 11:16:39;;;;;;;6.13;4.60;;;3.70;99.90;;;;;;5052192;28;20209;-72
2021/01/19 11:19:09;;;;;;;4.80;3.90;;;3.70;99.90;;;;;;5052261;28;20451;-75
2021/01/19 11:21:37;;;;;;;5.40;4.43;;;3.50;99.90;;;;;;5052565;28;20941;-77
2021/01/19 11:24:04;;;;;;;23.50;14.07;;;3.50;99.90;;;;;;5051962;28;20774;-73
2021/01/19 11:26:31;;;;;;;18.13;11.83;;;3.50;99.90;;;;;;5052072;28;20459;-74
2021/01/19 11:28:57;;;;;;;8.23;5.03;;;3.40;99.90;;;;;;5052013;28;20426;-71
2021/01/19 11:31:27;;;;;;;7.40;3.83;;;3.40;99.90;;;;;;5052163;28;21025;-72
2021/01/19 11:33:58;;;;;;;8.03;4.37;;;3.20;99.90;;;;;;5033995;28;20509;-72
2021/01/19 11:36:29;;;;;;;7.67;4.40;;;3.10;99.90;;;;;;5052018;28;20493;-72
2021/01/19 11:38:55;;;;;;;8.27;4.40;;;3.10;99.90;;;;;;5052095;28;20405;-72
2021/01/19 11:41:24;;;;;;;5.30;4.80;;;3.10;99.90;;;;;;5051813;28;20433;-72
2021/01/19 11:43:51;;;;;;;6.50;4.73;;;3.00;99.90;;;;;;5051978;28;20496;-72
2021/01/19 11:46:27;;;;;;;6.60;5.00;;;2.90;99.90;;;;;;5051506;28;20464;-72
2021/01/19 11:48:56;;;;;;;8.13;5.13;;;2.80;99.90;;;;;;5051924;28;20401;-73
2021/01/19 11:51:26;;;;;;;8.70;4.67;;;2.80;99.90;;;;;;5051525;28;20948;-73
2021/01/19 11:53:54;;;;;;;7.90;4.70;;;2.60;99.90;;;;;;5051741;28;20413;-73
2021/01/19 11:56:20;;;;;;;9.87;4.43;;;2.60;99.90;;;;;;5051933;28;20791;-73
2021/01/19 11:58:46;;;;;;;7.33;4.37;;;2.40;99.90;;;;;;5051678;28;20405;-73
2021/01/19 12:01:21;;;;;;;7.07;4.77;;;2.30;99.90;;;;;;5051633;28;20190;-73
2021/01/19 12:03:47;;;;;;;10.83;5.50;;;2.20;99.90;;;;;;5051323;28;20405;-72
2021/01/19 12:06:14;;;;;;;6.30;4.43;;;2.00;99.90;;;;;;5051425;28;20464;-72
2021/01/19 12:08:40;;;;;;;7.13;4.20;;;2.00;99.90;;;;;;5051631;28;20397;-72
2021/01/19 12:11:06;;;;;;;10.60;4.70;;;1.90;99.90;;;;;;5033551;28;20977;-73
2021/01/19 12:13:32;;;;;;;8.50;5.13;;;1.90;99.90;;;;;;5055688;28;20468;-73
2021/01/19 12:15:57;;;;;;;5.73;4.50;;;1.70;99.90;;;;;;5055742;28;20408;-73
2021/01/19 12:18:23;;;;;;;7.60;4.27;;;1.70;99.90;;;;;;5056374;28;20179;-73
2021/01/19 12:20:48;;;;;;;5.77;4.60;;;1.70;99.90;;;;;;5057006;28;20191;-73
2021/01/19 12:23:14;;;;;;;6.23;4.73;;;1.60;99.90;;;;;;5057277;28;20182;-73
2021/01/19 12:25:39;;;;;;;6.23;4.17;;;1.60;99.90;;;;;;5057217;28;20170;-73
2021/01/19 12:28:05;;;;;;;6.00;5.27;;;1.60;99.90;;;;;;5055816;28;20530;-73
2021/01/19 12:30:30;;;;;;;6.47;4.87;;;1.60;99.90;;;;;;5056314;28;20540;-73
2021/01/19 12:32:56;;;;;;;5.77;5.10;;;1.60;99.90;;;;;;5055452;28;20179;-73
2021/01/19 12:35:22;;;;;;;6.33;4.83;;;1.70;99.90;;;;;;5055551;28;20631;-73
2021/01/19 12:37:48;;;;;;;5.87;4.83;;;1.60;99.90;;;;;;5055181;28;20785;-73
2021/01/19 12:40:14;;;;;;;5.67;4.80;;;1.60;99.90;;;;;;5055518;28;20417;-73
2021/01/19 12:42:41;;;;;;;6.23;4.40;;;1.60;99.90;;;;;;5037299;28;20175;-73
2021/01/19 12:45:07;;;;;;;4.47;4.07;;;1.50;99.90;;;;;;5055092;28;20254;-73
2021/01/19 12:47:32;;;;;;;5.10;4.60;;;1.50;99.90;;;;;;5054823;28;20595;-73
2021/01/19 12:49:58;;;;;;;5.87;4.13;;;1.50;99.90;;;;;;5054947;28;20913;-73
2021/01/19 12:52:23;;;;;;;4.47;4.07;;;1.50;99.90;;;;;;5054682;28;20197;-73
2021/01/19 12:54:49;;;;;;;6.27;4.10;;;1.50;99.90;;;;;;5054538;28;20541;-73
2021/01/19 12:57:15;;;;;;;5.03;4.60;;;1.50;99.90;;;;;;5054542;28;20175;-73
2021/01/19 12:59:41;;;;;;;6.23;4.77;;;1.50;99.90;;;;;;5054758;28;20688;-74
2021/01/19 13:02:07;;;;;;;6.50;4.60;;;1.50;99.90;;;;;;5054291;28;20498;-72
2021/01/19 13:04:33;;;;;;;8.07;4.60;;;1.50;99.90;;;;;;5054728;28;20409;-73
2021/01/19 13:06:58;;;;;;;4.33;3.83;;;1.50;99.90;;;;;;5054485;28;20811;-73
2021/01/19 13:09:24;;;;;;;9.57;5.53;;;1.50;99.90;;;;;;5054594;28;20237;-73
2021/01/19 13:11:49;;;;;;;7.80;6.20;;;1.60;99.90;;;;;;5054349;28;20191;-72
2021/01/19 13:14:15;;;;;;;5.63;4.87;;;2.00;99.90;;;;;;5054230;28;20167;-73
2021/01/19 13:16:41;;;;;;;4.93;4.37;;;1.70;99.90;;;;;;5054054;28;20209;-74
2021/01/19 13:19:06;;;;;;;5.63;4.53;;;1.50;99.90;;;;;;5054099;28;20437;-72
2021/01/19 13:21:32;;;;;;;4.40;4.00;;;1.50;99.90;;;;;;5054071;28;20199;-73
2021/01/19 13:23:57;;;;;;;4.27;3.87;;;1.50;99.90;;;;;;5053496;28;20171;-73
2021/01/19 13:26:23;;;;;;;4.50;4.10;;;1.60;99.90;;;;;;5054478;28;20195;-77
2021/01/19 13:28:49;;;;;;;4.03;3.53;;;1.60;99.90;;;;;;5054690;28;20167;-74
2021/01/19 13:31:19;;;;;;;4.43;4.03;;;1.60;99.90;;;;;;5053726;28;20701;-74
2021/01/19 13:33:44;;;;;;;4.23;3.83;;;1.50;99.90;;;;;;5054144;28;20655;-74
2021/01/19 13:36:10;;;;;;;5.73;4.97;;;1.60;99.90;;;;;;5054119;28;20462;-74
2021/01/19 13:38:36;;;;;;;5.90;5.30;;;1.70;99.90;;;;;;5053983;28;20179;-73
2021/01/19 13:41:01;;;;;;;4.60;4.20;;;1.60;99.90;;;;;;5053796;28;20494;-73